Time;durP1;ratioP1;P1;durP2;ratioP2;P2;SDS_P1;SDS_P2;PMS_P1;PMS_P2;Temp;Humidity;BMP_temperature;BMP_pressure;BME280_temperature;BME280_humidity;BME280_pressure;Samples;Min_cycle;Max_cycle;Signal;HPM_P1;HPM_P2
2021/06/21 00:04:57;;;;;;;2.60;2.00;;;21.30;83.30;;;;;;10493230;28;20231;-33
2021/06/21 00:10:19;;;;;;;2.27;1.93;;;21.30;83.30;;;;;;10532431;28;20674;-33
2021/06/21 00:15:41;;;;;;;2.10;1.90;;;21.30;83.40;;;;;;10493559;28;20212;-29
2021/06/21 00:21:05;;;;;;;2.60;2.30;;;21.30;83.40;;;;;;10509276;28;20216;-31
2021/06/21 00:26:28;;;;;;;1.97;1.87;;;21.30;83.30;;;;;;10500979;28;20690;-32
2021/06/21 00:31:50;;;;;;;2.97;2.00;;;21.30;83.30;;;;;;10491327;28;20291;-30
2021/06/21 00:37:14;;;;;;;1.70;1.47;;;21.30;83.30;;;;;;10517462;28;20215;-29
2021/06/21 00:42:37;;;;;;;1.73;1.63;;;21.30;83.30;;;;;;10515744;28;20588;-30
2021/06/21 00:47:59;;;;;;;1.87;1.77;;;21.30;83.30;;;;;;10501932;28;20197;-31
2021/06/21 00:53:22;;;;;;;1.87;1.77;;;21.30;83.40;;;;;;10504958;28;20218;-31
2021/06/21 00:58:45;;;;;;;1.70;1.60;;;21.30;83.40;;;;;;10540592;28;20697;-30
2021/06/21 01:04:07;;;;;;;2.83;1.60;;;21.30;83.30;;;;;;10542117;28;20227;-31
2021/06/21 01:09:31;;;;;;;1.60;1.40;;;21.30;83.30;;;;;;10559739;28;20192;-32
2021/06/21 01:15:01;;;;;;;1.50;1.40;;;21.30;83.30;;;;;;10545418;28;20226;-30
2021/06/21 01:20:52;;;;;;;2.03;1.67;;;21.30;83.30;;;;;;10564640;28;20214;-31
2021/06/21 01:26:19;;;;;;;2.03;1.70;;;21.30;83.20;;;;;;10497776;28;20217;-27
2021/06/21 01:31:54;;;;;;;3.47;1.87;;;21.30;83.30;;;;;;10499422;28;20703;-28
2021/06/21 01:37:19;;;;;;;2.20;1.50;;;21.30;83.30;;;;;;10501617;28;20196;-29
2021/06/21 01:42:47;;;;;;;1.80;1.60;;;21.30;83.30;;;;;;10539744;28;20219;-30
2021/06/21 01:48:11;;;;;;;1.83;1.70;;;21.30;83.20;;;;;;10536246;28;20187;-29
2021/06/21 01:53:36;;;;;;;1.57;1.47;;;21.30;83.20;;;;;;10536413;28;20207;-30
2021/06/21 01:59:02;;;;;;;2.20;1.40;;;21.30;83.30;;;;;;10547965;28;20212;-31
2021/06/21 02:04:26;;;;;;;1.60;1.50;;;21.30;83.30;;;;;;10538222;28;20220;-31
2021/06/21 02:09:52;;;;;;;1.43;1.33;;;21.30;83.30;;;;;;10536269;28;20544;-33
2021/06/21 02:15:15;;;;;;;1.47;1.33;;;21.30;83.30;;;;;;10520458;28;20212;-31
2021/06/21 02:20:37;;;;;;;1.67;1.40;;;21.30;83.20;;;;;;10506677;28;20224;-29
2021/06/21 02:26:01;;;;;;;1.50;1.40;;;21.30;83.30;;;;;;10498013;28;20246;-32
2021/06/21 02:31:23;;;;;;;1.70;1.60;;;21.30;83.20;;;;;;10516825;28;20266;-30
2021/06/21 02:36:46;;;;;;;2.27;1.53;;;21.30;83.30;;;;;;10523411;28;20195;-30
2021/06/21 02:42:10;;;;;;;1.73;1.60;;;21.30;83.30;;;;;;10499334;28;20223;-28
2021/06/21 02:47:32;;;;;;;1.60;1.50;;;21.30;83.30;;;;;;10493809;28;20224;-30
2021/06/21 02:53:03;;;;;;;1.50;1.33;;;21.30;83.30;;;;;;10534710;28;20212;-30
2021/06/21 02:58:29;;;;;;;1.73;1.60;;;21.30;83.40;;;;;;10519090;28;20212;-30
2021/06/21 03:04:12;;;;;;;1.53;1.43;;;21.30;83.30;;;;;;10500374;28;20220;-30
2021/06/21 03:09:38;;;;;;;2.47;1.20;;;21.30;83.30;;;;;;10566561;28;20187;-30
2021/06/21 03:15:01;;;;;;;1.73;1.40;;;21.20;83.20;;;;;;10493689;28;20459;-30
2021/06/21 03:20:24;;;;;;;1.53;1.43;;;21.30;83.30;;;;;;10507303;28;20215;-33
2021/06/21 03:25:51;;;;;;;1.47;1.37;;;21.30;83.30;;;;;;10542159;28;20219;-29
2021/06/21 03:31:15;;;;;;;1.53;1.27;;;21.30;83.30;;;;;;10493698;28;20192;-31
2021/06/21 03:36:37;;;;;;;1.60;1.50;;;21.30;83.30;;;;;;10506400;28;20200;-31
2021/06/21 03:41:59;;;;;;;1.53;1.20;;;21.30;83.30;;;;;;10493574;28;20719;-29
2021/06/21 03:47:23;;;;;;;1.73;1.40;;;21.30;83.30;;;;;;10520896;28;20693;-28
2021/06/21 03:52:45;;;;;;;1.10;1.00;;;21.30;83.30;;;;;;10531720;28;20229;-28
2021/06/21 03:58:07;;;;;;;1.43;1.33;;;21.30;83.30;;;;;;10487927;28;20228;-32
2021/06/21 04:03:31;;;;;;;1.40;1.30;;;21.30;83.20;;;;;;10530686;22;65966;-30
2021/06/21 04:08:53;;;;;;;1.13;1.03;;;21.20;83.20;;;;;;10574565;28;20198;-28
2021/06/21 04:14:15;;;;;;;1.63;1.40;;;21.20;83.20;;;;;;10575637;28;20218;-29
2021/06/21 04:19:38;;;;;;;1.80;1.20;;;21.30;83.30;;;;;;10575275;28;20563;-29
2021/06/21 04:25:00;;;;;;;2.00;1.27;;;21.20;83.20;;;;;;10576140;28;20237;-28
2021/06/21 04:30:25;;;;;;;1.47;1.37;;;21.30;83.30;;;;;;10566572;28;20190;-29
2021/06/21 04:35:48;;;;;;;1.73;1.40;;;21.30;83.30;;;;;;10573868;28;20222;-30
2021/06/21 04:41:10;;;;;;;1.67;1.30;;;21.20;83.30;;;;;;10568542;28;20215;-30
2021/06/21 04:46:33;;;;;;;1.33;1.20;;;21.20;83.30;;;;;;10572387;28;20210;-29
2021/06/21 04:51:59;;;;;;;1.63;1.47;;;21.20;83.30;;;;;;10573855;28;20188;-30
2021/06/21 04:57:21;;;;;;;1.70;1.43;;;21.20;83.30;;;;;;10566351;28;20195;-28
2021/06/21 05:02:43;;;;;;;1.50;1.10;;;21.20;83.30;;;;;;10574367;28;20218;-29
2021/06/21 05:08:07;;;;;;;1.47;1.23;;;21.30;83.30;;;;;;10575301;28;20561;-29
2021/06/21 05:13:29;;;;;;;1.40;1.30;;;21.30;83.30;;;;;;10574165;28;20294;-28
2021/06/21 05:18:51;;;;;;;1.30;1.10;;;21.30;83.30;;;;;;10575955;28;20245;-29
2021/06/21 05:24:15;;;;;;;1.20;1.10;;;21.20;83.20;;;;;;10577577;28;20215;-29
2021/06/21 05:29:37;;;;;;;1.37;1.20;;;21.20;83.20;;;;;;10581534;27;20191;-28
2021/06/21 05:34:59;;;;;;;1.30;1.20;;;21.20;83.20;;;;;;10583768;27;20223;-28
2021/06/21 05:40:22;;;;;;;1.40;1.13;;;21.20;83.20;;;;;;10581245;27;20222;-29
2021/06/21 05:45:44;;;;;;;1.63;1.10;;;21.30;83.30;;;;;;10578077;28;20213;-29
2021/06/21 05:51:07;;;;;;;1.57;1.10;;;21.20;83.20;;;;;;10580890;28;20187;-29
2021/06/21 05:56:30;;;;;;;1.17;1.07;;;21.20;83.20;;;;;;10580570;28;20207;-31
2021/06/21 06:01:52;;;;;;;1.33;1.23;;;21.20;83.20;;;;;;10579483;28;20223;-28
2021/06/21 06:07:14;;;;;;;1.40;0.87;;;21.20;83.20;;;;;;10569025;27;20831;-29
2021/06/21 06:12:38;;;;;;;1.13;0.70;;;21.00;81.20;;;;;;10557883;28;20794;-28
2021/06/21 06:18:00;;;;;;;0.77;0.60;;;20.80;81.00;;;;;;10579317;28;20199;-28
2021/06/21 06:23:22;;;;;;;0.80;0.40;;;20.60;81.50;;;;;;10565638;28;20216;-28
2021/06/21 06:28:46;;;;;;;1.10;0.63;;;20.50;81.50;;;;;;10548312;28;20657;-29
2021/06/21 06:34:08;;;;;;;0.73;0.40;;;20.40;81.80;;;;;;10568354;28;20218;-30
2021/06/21 06:39:30;;;;;;;2.13;0.80;;;20.30;82.60;;;;;;10578825;28;20226;-30
2021/06/21 06:44:54;;;;;;;0.30;0.30;;;20.30;82.40;;;;;;10570044;28;20222;-30
2021/06/21 06:50:16;;;;;;;0.40;0.37;;;20.30;82.50;;;;;;10578498;28;20202;-29
2021/06/21 07:01:19;;;;;;;3.53;0.40;;;20.20;83.70;;;;;;10561545;28;20214;-29
2021/06/21 07:06:42;;;;;;;1.93;0.30;;;20.20;83.70;;;;;;10567466;28;20249;-30
2021/06/21 07:12:05;;;;;;;1.40;0.20;;;20.40;83.10;;;;;;10562562;27;20262;-29
2021/06/21 07:17:28;;;;;;;0.50;0.27;;;20.60;82.80;;;;;;10577524;28;20662;-30
2021/06/21 07:22:50;;;;;;;3.70;0.40;;;20.80;82.50;;;;;;10563519;28;20218;-30
2021/06/21 07:28:15;;;;;;;0.47;0.30;;;20.80;82.00;;;;;;10556014;28;20198;-31
2021/06/21 07:33:39;;;;;;;0.10;0.10;;;20.90;81.80;;;;;;10566320;28;20226;-28
2021/06/21 07:39:01;;;;;;;0.30;0.20;;;21.00;81.60;;;;;;10546976;27;20221;-29
2021/06/21 07:44:24;;;;;;;1.13;0.30;;;21.00;81.40;;;;;;10576591;28;20219;-28
2021/06/21 07:49:47;;;;;;;0.20;0.10;;;21.10;81.30;;;;;;10576968;27;20261;-31
2021/06/21 07:55:09;;;;;;;0.27;0.10;;;21.00;81.20;;;;;;10573161;28;20226;-28
2021/06/21 08:00:33;;;;;;;0.40;0.20;;;21.10;81.10;;;;;;10577533;28;20211;-29
2021/06/21 08:06:01;;;;;;;1.10;0.40;;;21.10;81.20;;;;;;10570496;28;20283;-29
2021/06/21 08:11:23;;;;;;;1.00;0.43;;;21.10;81.20;;;;;;10555850;28;20192;-28
2021/06/21 08:16:45;;;;;;;0.77;0.20;;;21.20;81.40;;;;;;10576555;28;20218;-28
2021/06/21 08:22:08;;;;;;;1.27;0.20;;;21.20;81.50;;;;;;10571716;28;20214;-29
2021/06/21 08:27:30;;;;;;;0.63;0.20;;;21.20;81.70;;;;;;10566396;28;20199;-29
2021/06/21 08:32:53;;;;;;;0.90;0.20;;;21.20;81.70;;;;;;10560851;28;20215;-29
2021/06/21 08:38:16;;;;;;;0.60;0.10;;;21.20;81.90;;;;;;10561293;28;20282;-30
2021/06/21 08:43:40;;;;;;;0.50;0.23;;;21.20;82.00;;;;;;10574851;28;20237;-30
2021/06/21 08:49:04;;;;;;;0.47;0.20;;;21.30;82.00;;;;;;10551603;28;20223;-28
2021/06/21 08:54:28;;;;;;;0.43;0.30;;;21.30;82.00;;;;;;10567814;28;20219;-28
2021/06/21 08:59:50;;;;;;;0.20;0.20;;;21.30;82.10;;;;;;10560013;28;20210;-31
2021/06/21 09:05:12;;;;;;;0.10;0.10;;;21.20;81.60;;;;;;10566082;27;20231;-30
2021/06/21 09:10:37;;;;;;;0.17;0.10;;;21.20;81.40;;;;;;10583041;27;20277;-29
2021/06/21 09:15:59;;;;;;;1.17;0.30;;;21.20;81.40;;;;;;10580761;28;20215;-32
2021/06/21 09:21:28;;;;;;;0.37;0.20;;;21.20;81.40;;;;;;10574802;28;20245;-31
2021/06/21 09:26:54;;;;;;;0.53;0.40;;;21.20;81.40;;;;;;10582960;28;20585;-29
2021/06/21 09:32:17;;;;;;;0.40;0.20;;;21.20;81.50;;;;;;10581304;28;20207;-30
2021/06/21 09:37:47;;;;;;;1.60;0.23;;;21.20;81.40;;;;;;10581744;27;20605;-28
2021/06/21 09:43:22;;;;;;;1.33;0.60;;;21.10;81.70;;;;;;10543279;28;20593;-29
2021/06/21 09:48:46;;;;;;;0.43;0.40;;;21.00;82.80;;;;;;10560737;28;20187;-28
2021/06/21 09:54:11;;;;;;;0.90;0.70;;;21.00;83.10;;;;;;10580648;28;20608;-30
2021/06/21 09:59:35;;;;;;;1.07;0.77;;;21.00;83.00;;;;;;10581628;28;20308;-29
2021/06/21 10:04:57;;;;;;;1.73;1.43;;;21.00;82.20;;;;;;10577676;22;20590;-28
2021/06/21 10:10:21;;;;;;;2.10;1.70;;;20.90;82.20;;;;;;10535996;28;20188;-27
2021/06/21 10:15:45;;;;;;;1.30;1.20;;;20.80;82.50;;;;;;10536250;28;20216;-28
2021/06/21 10:21:07;;;;;;;1.87;1.50;;;20.80;82.50;;;;;;10528024;28;20220;-28
2021/06/21 10:26:29;;;;;;;1.70;1.60;;;20.80;83.20;;;;;;10537869;28;20216;-28
2021/06/21 10:31:53;;;;;;;1.80;1.70;;;20.80;84.10;;;;;;10538415;28;20195;-27
2021/06/21 10:37:17;;;;;;;1.80;1.70;;;20.80;84.60;;;;;;10539502;27;20705;-28
2021/06/21 10:42:43;;;;;;;2.43;1.53;;;20.70;85.50;;;;;;10498680;28;20228;-28
2021/06/21 10:48:15;;;;;;;1.90;1.80;;;20.70;85.80;;;;;;10525479;28;20202;-27
2021/06/21 10:53:52;;;;;;;2.20;2.00;;;20.70;85.70;;;;;;10536724;28;20286;-28
2021/06/21 10:59:15;;;;;;;2.90;2.70;;;20.80;86.40;;;;;;10532936;28;20227;-27
2021/06/21 11:04:48;;;;;;;3.60;2.60;;;20.80;87.00;;;;;;10536825;28;20229;-29
2021/06/21 11:10:29;;;;;;;4.40;2.50;;;20.90;84.80;;;;;;10534697;28;20183;-29
2021/06/21 11:16:25;;;;;;;3.67;3.37;;;20.80;83.30;;;;;;10527458;28;20219;-27
2021/06/21 11:21:53;;;;;;;3.33;3.13;;;20.70;83.50;;;;;;10533925;28;20216;-27
2021/06/21 11:27:16;;;;;;;3.53;2.93;;;20.70;85.00;;;;;;10536189;28;20208;-29
2021/06/21 11:32:54;;;;;;;4.50;4.20;;;20.70;84.70;;;;;;10525429;28;20677;-27
2021/06/21 11:38:30;;;;;;;3.90;3.60;;;20.70;85.40;;;;;;10530261;28;20200;-28
2021/06/21 11:43:56;;;;;;;3.63;3.33;;;20.80;84.80;;;;;;10524820;28;20207;-27
2021/06/21 11:49:20;;;;;;;4.67;3.70;;;20.80;85.00;;;;;;10535723;28;20224;-27
2021/06/21 11:54:44;;;;;;;5.93;4.40;;;20.90;84.90;;;;;;10533069;28;20216;-28
2021/06/21 12:00:08;;;;;;;4.67;4.37;;;20.90;84.90;;;;;;10530826;28;20589;-28
2021/06/21 12:05:31;;;;;;;5.03;4.60;;;20.90;85.20;;;;;;10531359;28;20224;-27
2021/06/21 12:10:54;;;;;;;4.53;4.13;;;21.00;84.80;;;;;;10534370;28;20203;-28
2021/06/21 12:16:17;;;;;;;3.80;3.50;;;21.00;84.40;;;;;;10534366;28;20215;-27
2021/06/21 12:21:40;;;;;;;4.20;3.90;;;21.00;84.20;;;;;;10534168;28;20238;-27
2021/06/21 12:27:08;;;;;;;5.47;5.07;;;21.10;84.00;;;;;;10534680;28;20218;-28
2021/06/21 12:32:34;;;;;;;5.77;5.27;;;21.00;83.80;;;;;;10532027;28;20195;-27
2021/06/21 12:37:56;;;;;;;6.53;5.87;;;21.00;84.30;;;;;;10543491;28;20191;-28
2021/06/21 12:43:20;;;;;;;5.20;4.80;;;21.00;84.30;;;;;;10539599;28;20231;-28
2021/06/21 12:48:43;;;;;;;5.30;4.63;;;21.00;83.60;;;;;;10540516;28;20198;-28
2021/06/21 12:54:06;;;;;;;5.43;5.03;;;21.10;83.20;;;;;;10541719;28;20582;-28
2021/06/21 12:59:31;;;;;;;4.93;4.53;;;21.10;83.10;;;;;;10540555;28;20187;-27
2021/06/21 13:04:58;;;;;;;5.47;4.80;;;21.10;82.80;;;;;;10538380;28;20235;-28
2021/06/21 13:10:22;;;;;;;5.00;4.60;;;21.10;82.70;;;;;;10530440;28;20220;-28
2021/06/21 13:15:47;;;;;;;5.23;4.83;;;21.10;83.10;;;;;;10541804;28;20214;-28
2021/06/21 13:21:09;;;;;;;3.43;3.07;;;21.10;83.10;;;;;;10541236;28;20215;-28
2021/06/21 13:26:32;;;;;;;4.10;3.80;;;21.10;82.50;;;;;;10558969;28;20223;-28
2021/06/21 13:31:59;;;;;;;4.10;3.77;;;21.10;82.30;;;;;;10538886;28;20188;-29
2021/06/21 13:37:27;;;;;;;6.60;4.73;;;21.10;82.30;;;;;;10540814;28;20713;-28
2021/06/21 13:42:51;;;;;;;4.37;3.53;;;21.10;82.40;;;;;;10538545;28;20586;-29
2021/06/21 13:48:18;;;;;;;4.27;3.87;;;21.10;82.30;;;;;;10539297;28;20271;-27
2021/06/21 13:53:41;;;;;;;6.10;5.40;;;21.10;81.80;;;;;;10539962;28;20208;-28
2021/06/21 13:59:05;;;;;;;8.17;6.97;;;21.10;82.00;;;;;;10539912;28;20666;-28
2021/06/21 14:04:29;;;;;;;8.50;7.53;;;21.10;82.20;;;;;;10539202;28;20237;-28
2021/06/21 14:09:55;;;;;;;7.70;6.90;;;21.10;82.50;;;;;;10538172;28;20188;-28
2021/06/21 14:15:17;;;;;;;9.57;8.77;;;21.10;82.70;;;;;;10519312;28;20299;-29
2021/06/21 14:20:42;;;;;;;9.17;8.27;;;21.00;82.70;;;;;;10537943;28;20219;-28
2021/06/21 14:26:06;;;;;;;10.33;8.77;;;21.10;82.70;;;;;;10532668;28;20218;-28
2021/06/21 14:31:31;;;;;;;10.83;9.83;;;21.10;83.10;;;;;;10504333;28;20318;-29
2021/06/21 14:36:54;;;;;;;11.87;10.77;;;21.10;82.90;;;;;;10526393;28;20686;-28
2021/06/21 14:42:17;;;;;;;12.43;11.17;;;21.10;82.70;;;;;;10536393;28;20216;-30
2021/06/21 14:47:39;;;;;;;13.27;11.83;;;21.10;82.60;;;;;;10532539;28;20219;-27
2021/06/21 14:53:04;;;;;;;13.53;12.03;;;21.10;82.50;;;;;;10535062;28;20363;-28
2021/06/21 14:58:26;;;;;;;13.93;11.60;;;21.10;82.10;;;;;;10527748;28;20199;-28
2021/06/21 15:03:48;;;;;;;11.77;10.67;;;21.10;82.80;;;;;;10530843;28;20215;-29
2021/06/21 15:09:11;;;;;;;11.37;9.67;;;21.10;82.00;;;;;;10532655;28;20196;-28
2021/06/21 15:14:33;;;;;;;9.57;8.67;;;21.00;81.80;;;;;;10534862;28;20216;-28
2021/06/21 15:20:07;;;;;;;8.53;6.80;;;20.90;81.60;;;;;;10657002;27;20346;-32
2021/06/21 15:25:29;;;;;;;8.03;6.47;;;20.90;81.60;;;;;;10655465;27;20699;-30
2021/06/21 15:30:53;;;;;;;7.43;6.50;;;20.90;81.90;;;;;;10647355;27;20914;-30
2021/06/21 15:36:17;;;;;;;6.03;5.23;;;20.90;80.60;;;;;;10655887;27;20214;-30
2021/06/21 15:41:39;;;;;;;5.87;4.73;;;20.80;81.20;;;;;;10654880;27;20198;-29
2021/06/21 15:47:01;;;;;;;7.23;4.77;;;20.70;81.50;;;;;;10690502;27;20209;-30
2021/06/21 15:52:25;;;;;;;7.30;4.97;;;20.60;81.70;;;;;;10690460;27;20501;-31
2021/06/21 15:57:50;;;;;;;4.03;3.63;;;20.70;81.80;;;;;;10651809;27;20221;-32
2021/06/21 16:08:20;;;;;;;3.73;3.07;;;20.90;82.40;;;;;;10442120;28;20213;-28
2021/06/21 16:13:43;;;;;;;3.50;3.20;;;21.00;82.50;;;;;;10438242;28;20565;-29
2021/06/21 16:19:07;;;;;;;3.80;2.80;;;21.00;82.50;;;;;;10437045;28;20239;-29
2021/06/21 16:24:31;;;;;;;2.93;2.63;;;21.00;82.60;;;;;;10407285;28;20759;-29
2021/06/21 16:29:53;;;;;;;3.07;2.73;;;21.00;82.70;;;;;;10394822;28;20189;-28
2021/06/21 16:35:17;;;;;;;3.13;2.50;;;21.00;82.70;;;;;;10394748;28;20206;-28
2021/06/21 16:40:42;;;;;;;4.50;2.60;;;21.00;82.80;;;;;;10386774;28;20206;-29
2021/06/21 16:46:04;;;;;;;3.30;2.77;;;21.00;82.80;;;;;;10374572;28;20211;-29
2021/06/21 16:51:27;;;;;;;3.13;2.63;;;21.00;82.80;;;;;;10386813;28;20205;-29
2021/06/21 16:56:51;;;;;;;2.77;2.57;;;21.00;83.40;;;;;;10393805;28;20701;-28
2021/06/21 17:02:13;;;;;;;3.00;2.60;;;21.00;82.70;;;;;;10392923;28;20198;-28
2021/06/21 17:07:36;;;;;;;3.07;2.77;;;21.00;82.80;;;;;;10389319;28;20225;-28
2021/06/21 17:13:00;;;;;;;3.07;2.77;;;21.00;82.70;;;;;;10389644;28;20247;-29
2021/06/21 17:18:22;;;;;;;2.90;2.53;;;21.00;82.70;;;;;;10390525;28;20718;-29
2021/06/21 17:23:44;;;;;;;5.50;2.77;;;21.00;82.50;;;;;;10382497;28;20592;-29
2021/06/21 17:29:08;;;;;;;3.40;2.30;;;21.00;82.60;;;;;;10387045;28;20785;-28
2021/06/21 17:34:30;;;;;;;2.67;2.47;;;21.10;82.70;;;;;;10392911;28;20218;-28
2021/06/21 17:39:52;;;;;;;2.90;2.70;;;21.00;82.30;;;;;;10393174;28;20218;-29
2021/06/21 17:45:17;;;;;;;5.17;2.77;;;21.00;82.60;;;;;;10390176;28;20230;-28
2021/06/21 17:50:39;;;;;;;2.43;2.23;;;21.00;82.70;;;;;;10383082;28;20198;-28
2021/06/21 17:56:02;;;;;;;3.03;2.50;;;21.00;82.70;;;;;;10386484;28;20249;-28
2021/06/21 18:01:27;;;;;;;5.47;2.10;;;21.00;82.70;;;;;;10412237;28;20202;-29
2021/06/21 18:06:49;;;;;;;2.73;2.00;;;21.00;82.70;;;;;;10402556;28;20265;-28
2021/06/21 18:12:12;;;;;;;3.50;1.90;;;21.10;82.40;;;;;;10379656;28;20323;-30
2021/06/21 18:17:35;;;;;;;2.33;2.13;;;21.10;82.40;;;;;;10364897;28;20229;-29
2021/06/21 18:22:59;;;;;;;2.50;2.10;;;21.10;82.20;;;;;;10384669;28;20204;-28
2021/06/21 18:28:21;;;;;;;3.07;1.33;;;21.10;82.00;;;;;;10405525;28;20317;-30
2021/06/21 18:33:45;;;;;;;2.07;1.13;;;21.10;82.10;;;;;;10404466;28;20247;-29
2021/06/21 18:39:07;;;;;;;2.27;1.40;;;21.00;81.80;;;;;;10386707;28;20593;-31
2021/06/21 18:44:29;;;;;;;1.60;1.17;;;21.10;81.70;;;;;;10366081;28;20218;-31
2021/06/21 18:49:53;;;;;;;1.70;1.30;;;21.00;81.70;;;;;;10402913;28;20580;-32
2021/06/21 18:55:16;;;;;;;1.43;1.10;;;21.10;81.80;;;;;;10404310;28;20222;-29
2021/06/21 19:00:39;;;;;;;0.93;0.90;;;21.00;81.80;;;;;;10404523;28;20720;-28
2021/06/21 19:06:02;;;;;;;1.20;1.10;;;21.00;81.90;;;;;;10394321;28;20308;-29
2021/06/21 19:11:25;;;;;;;1.13;1.03;;;21.10;81.90;;;;;;10393443;28;20205;-28
2021/06/21 19:16:47;;;;;;;1.67;1.10;;;21.00;82.00;;;;;;10363717;28;20237;-28
2021/06/21 19:22:11;;;;;;;2.30;0.90;;;21.00;81.90;;;;;;10385850;28;20287;-29
2021/06/21 19:27:33;;;;;;;1.50;0.87;;;21.10;81.90;;;;;;10403549;28;20259;-28
2021/06/21 19:33:02;;;;;;;1.77;0.90;;;21.00;81.80;;;;;;10404179;28;20700;-30
2021/06/21 19:38:28;;;;;;;0.90;0.70;;;21.00;81.90;;;;;;10392796;28;20233;-29
2021/06/21 19:43:50;;;;;;;0.73;0.73;;;21.00;81.70;;;;;;10363446;28;20251;-28
2021/06/21 19:49:12;;;;;;;1.57;0.80;;;21.00;81.80;;;;;;10364372;28;20662;-28
2021/06/21 19:54:35;;;;;;;0.63;0.60;;;21.00;81.80;;;;;;10370705;28;20574;-29
2021/06/21 19:59:57;;;;;;;0.80;0.73;;;21.00;81.80;;;;;;10386843;28;20213;-29
2021/06/21 20:05:20;;;;;;;0.70;0.70;;;21.00;81.70;;;;;;10393082;28;21649;-28
2021/06/21 20:10:43;;;;;;;0.80;0.70;;;21.00;81.70;;;;;;10397193;28;20201;-29
2021/06/21 20:16:06;;;;;;;1.70;0.80;;;21.00;81.70;;;;;;10394333;28;20226;-29
2021/06/21 20:21:28;;;;;;;0.53;0.50;;;21.00;81.60;;;;;;10393198;28;20773;-29
2021/06/21 20:26:52;;;;;;;0.60;0.60;;;21.00;81.70;;;;;;10397156;28;20214;-29
2021/06/21 20:32:14;;;;;;;0.50;0.50;;;21.00;81.60;;;;;;10394695;28;20253;-29
2021/06/21 20:37:39;;;;;;;0.53;0.53;;;21.00;81.50;;;;;;10396573;28;20226;-29
2021/06/21 20:43:02;;;;;;;0.70;0.70;;;21.00;81.50;;;;;;10393134;28;20206;-31
2021/06/21 20:48:24;;;;;;;0.70;0.70;;;21.00;81.50;;;;;;10393754;28;20187;-29
2021/06/21 20:53:46;;;;;;;0.60;0.60;;;21.00;81.50;;;;;;10392672;28;20210;-29
2021/06/21 20:59:10;;;;;;;0.67;0.60;;;21.00;81.40;;;;;;10391479;28;20214;-29
2021/06/21 21:04:32;;;;;;;0.97;0.60;;;21.00;81.40;;;;;;10392966;28;20605;-29
2021/06/21 21:09:55;;;;;;;0.83;0.70;;;21.00;81.30;;;;;;10393972;28;20191;-30
2021/06/21 21:15:19;;;;;;;0.60;0.60;;;21.00;81.30;;;;;;10394230;28;20267;-29
2021/06/21 21:20:41;;;;;;;1.03;0.70;;;21.00;81.90;;;;;;10392542;28;20214;-29
2021/06/21 21:26:04;;;;;;;0.60;0.60;;;21.00;81.20;;;;;;10392737;28;20213;-31
2021/06/21 21:31:27;;;;;;;1.27;0.70;;;20.90;81.20;;;;;;10381752;28;20190;-30
2021/06/21 21:36:49;;;;;;;0.60;0.60;;;21.00;81.20;;;;;;10405112;28;20232;-28
2021/06/21 21:42:12;;;;;;;0.67;0.63;;;21.00;81.10;;;;;;10404813;28;20201;-28
2021/06/21 21:47:35;;;;;;;0.60;0.60;;;20.90;81.00;;;;;;10399173;28;20222;-27
2021/06/21 21:52:58;;;;;;;0.73;0.73;;;21.00;81.10;;;;;;10374155;28;20197;-28
2021/06/21 21:58:20;;;;;;;0.63;0.63;;;21.00;81.10;;;;;;10413144;28;20228;-28
2021/06/21 22:08:56;;;;;;;0.60;0.60;;;20.90;80.90;;;;;;10505352;28;20211;-28
2021/06/21 22:14:18;;;;;;;0.97;0.80;;;21.00;81.00;;;;;;10490886;28;20427;-28
2021/06/21 22:19:40;;;;;;;0.70;0.60;;;20.90;80.80;;;;;;10493379;28;20591;-28
2021/06/21 22:25:04;;;;;;;0.70;0.70;;;20.90;81.40;;;;;;10484700;28;20591;-28
2021/06/21 22:30:26;;;;;;;0.70;0.70;;;20.90;80.80;;;;;;10491322;28;20563;-26
2021/06/21 22:35:48;;;;;;;0.60;0.60;;;20.90;80.80;;;;;;10490513;28;20587;-28
2021/06/21 22:41:11;;;;;;;0.67;0.67;;;20.90;80.70;;;;;;10494014;28;20583;-27
2021/06/21 22:46:33;;;;;;;0.83;0.60;;;21.00;80.80;;;;;;10495089;28;20212;-27
2021/06/21 22:51:56;;;;;;;1.00;0.50;;;20.90;80.60;;;;;;10492284;28;20196;-28
2021/06/21 22:57:19;;;;;;;1.03;0.70;;;20.90;80.50;;;;;;10491552;28;20637;-27
2021/06/21 23:02:41;;;;;;;0.73;0.70;;;20.90;80.30;;;;;;10492005;28;20199;-27
2021/06/21 23:08:03;;;;;;;2.00;0.80;;;20.90;80.40;;;;;;10493564;28;20220;-28
2021/06/21 23:13:27;;;;;;;1.63;0.90;;;20.90;80.30;;;;;;10492599;28;20204;-27
2021/06/21 23:18:49;;;;;;;0.60;0.60;;;20.90;80.30;;;;;;10483750;28;20212;-27
2021/06/21 23:24:11;;;;;;;0.70;0.70;;;20.90;80.30;;;;;;10492089;28;20208;-28
2021/06/21 23:29:35;;;;;;;2.20;0.80;;;20.90;80.20;;;;;;10493216;28;20192;-28
2021/06/21 23:34:57;;;;;;;1.70;0.90;;;20.90;80.10;;;;;;10492389;28;20240;-26
2021/06/21 23:40:20;;;;;;;0.77;0.73;;;20.90;80.10;;;;;;10497086;28;20573;-27
2021/06/21 23:45:45;;;;;;;0.70;0.70;;;20.90;80.20;;;;;;10500201;28;20212;-27
2021/06/21 23:51:08;;;;;;;2.30;1.10;;;20.90;80.10;;;;;;10500276;28;20200;-27
2021/06/21 23:56:30;;;;;;;1.23;0.83;;;20.90;80.10;;;;;;10458140;28;20593;-28
